Time;durP1;ratioP1;P1;durP2;ratioP2;P2;SDS_P1;SDS_P2;PMS_P1;PMS_P2;Temp;Humidity;BMP_temperature;BMP_pressure;BME280_temperature;BME280_humidity;BME280_pressure;Samples;Min_cycle;Max_cycle;Signal;HPM_P1;HPM_P2
2023/11/07 00:01:30;;;;;;;0.13;0.13;;;;;;;10.47;nan;99597.34;5025687;27;97193;-83
2023/11/07 00:03:56;;;;;;;0.00;0.00;;;;;;;10.54;nan;99625.00;5040068;27;100908;-84
2023/11/07 00:06:21;;;;;;;0.90;0.90;;;;;;;10.49;nan;99618.25;5041893;27;98587;-85
2023/11/07 00:08:47;;;;;;;0.47;0.47;;;;;;;10.54;nan;99639.91;5042730;27;96868;-85
2023/11/07 00:11:13;;;;;;;0.10;0.10;;;;;;;10.55;nan;99633.72;5043037;27;97263;-83
2023/11/07 00:13:40;;;;;;;0.10;0.10;;;;;;;10.46;nan;99631.50;5040471;27;98102;-85
2023/11/07 00:16:07;;;;;;;0.10;0.10;;;;;;;10.46;nan;99649.88;5040654;27;98115;-85
2023/11/07 00:18:33;;;;;;;0.13;0.13;;;;;;;10.19;nan;99622.13;5031149;27;96769;-85
2023/11/07 00:20:59;;;;;;;0.65;0.65;;;;;;;10.42;nan;99657.88;5034967;27;96849;-84
2023/11/07 00:23:25;;;;;;;0.10;0.10;;;;;;;10.34;nan;99661.75;5017693;27;101730;-85
2023/11/07 00:25:53;;;;;;;0.10;0.10;;;;;;;10.40;nan;99659.72;5035290;27;97943;-84
2023/11/07 00:28:19;;;;;;;0.10;0.10;;;;;;;10.36;nan;99657.31;5031473;27;97195;-84
2023/11/07 00:30:45;;;;;;;4.45;1.10;;;;;;;10.17;nan;99621.34;5028227;27;96816;-85
2023/11/07 00:33:11;;;;;;;0.10;0.10;;;;;;;10.46;nan;99671.72;5044806;27;97992;-84
2023/11/07 00:35:37;;;;;;;0.00;0.00;;;;;;;10.43;nan;99658.72;5034876;27;98498;-85
2023/11/07 00:38:04;;;;;;;0.15;0.15;;;;;;;10.36;nan;99673.03;5031687;27;96759;-84
2023/11/07 00:40:30;;;;;;;0.10;0.10;;;;;;;10.37;nan;99657.22;5048608;27;97021;-85
2023/11/07 00:42:56;;;;;;;0.00;0.00;;;;;;;10.16;nan;99632.75;5025924;27;98013;-84
2023/11/07 00:45:21;;;;;;;0.20;0.20;;;;;;;10.42;nan;99668.38;5029264;27;101248;-85
2023/11/07 00:47:47;;;;;;;0.03;0.03;;;;;;;10.39;nan;99655.41;5052017;27;97264;-85
2023/11/07 00:50:12;;;;;;;0.20;0.20;;;;;;;10.47;nan;99662.06;5051462;27;97331;-84
2023/11/07 00:52:41;;;;;;;0.10;0.10;;;;;;;10.49;nan;99660.22;5031304;27;101344;-85
2023/11/07 00:55:07;;;;;;;1.08;1.08;;;;;;;10.23;nan;99612.34;5030406;27;97019;-85
2023/11/07 00:57:32;;;;;;;0.10;0.10;;;;;;;10.52;nan;99652.22;5034470;27;97291;-86
2023/11/07 00:59:58;;;;;;;0.30;0.30;;;;;;;10.56;nan;99669.53;5026225;27;98278;-85
2023/11/07 01:02:23;;;;;;;0.28;0.28;;;;;;;10.60;nan;99665.88;5046939;27;101776;-85
2023/11/07 01:04:49;;;;;;;0.20;0.20;;;;;;;10.80;nan;99680.72;5051051;27;97799;-84
2023/11/07 01:07:15;;;;;;;0.10;0.10;;;;;;;10.87;nan;99666.38;5025214;27;96858;-84
2023/11/07 01:09:41;;;;;;;0.22;0.22;;;;;;;10.97;nan;99656.34;5050904;27;96901;-85
2023/11/07 01:12:08;;;;;;;0.03;0.03;;;;;;;11.06;nan;99674.28;5014565;28;101404;-85
2023/11/07 01:14:34;;;;;;;0.10;0.10;;;;;;;10.98;nan;99684.28;5011396;27;101295;-85
2023/11/07 01:16:59;;;;;;;0.47;0.47;;;;;;;10.88;nan;99683.88;5041143;27;96741;-84
2023/11/07 01:19:26;;;;;;;0.10;0.10;;;;;;;10.78;nan;99690.44;5051512;27;96681;-85
2023/11/07 01:21:52;;;;;;;3.70;2.25;;;;;;;10.44;nan;99626.31;5032097;27;100130;-85
2023/11/07 01:24:18;;;;;;;0.00;0.00;;;;;;;11.02;nan;99694.56;5033890;27;100834;-85
2023/11/07 01:26:44;;;;;;;0.10;0.10;;;;;;;11.24;nan;99707.56;5030900;27;97021;-83
2023/11/07 01:29:09;;;;;;;0.40;0.40;;;;;;;11.04;nan;99669.09;5009752;27;96951;-84
2023/11/07 01:31:35;;;;;;;0.47;0.47;;;;;;;11.29;nan;99695.09;5035408;27;97975;-84
2023/11/07 01:34:00;;;;;;;0.20;0.20;;;;;;;11.19;nan;99664.91;5030705;27;97273;-84
2023/11/07 01:36:26;;;;;;;0.00;0.00;;;;;;;11.29;nan;99684.56;5042664;27;96718;-83
2023/11/07 01:38:52;;;;;;;0.10;0.10;;;;;;;11.13;nan;99654.69;5030522;27;97231;-84
2023/11/07 01:41:17;;;;;;;0.20;0.20;;;;;;;11.38;nan;99696.44;5040408;27;98110;-84
2023/11/07 01:43:43;;;;;;;0.00;0.00;;;;;;;11.38;nan;99699.06;5050245;27;97782;-83
2023/11/07 01:46:09;;;;;;;0.10;0.10;;;;;;;11.20;nan;99666.63;5052353;27;96783;-84
2023/11/07 01:48:36;;;;;;;0.00;0.00;;;;;;;11.43;nan;99710.22;5050192;27;96788;-83
2023/11/07 01:51:01;;;;;;;1.35;1.25;;;;;;;11.41;nan;99712.03;5020466;27;101527;-85
2023/11/07 01:53:28;;;;;;;1.05;1.05;;;;;;;11.10;nan;99660.06;5053894;27;98164;-84
2023/11/07 01:55:54;;;;;;;0.10;0.10;;;;;;;11.23;nan;99673.50;5053806;27;97241;-84
2023/11/07 01:58:20;;;;;;;0.10;0.10;;;;;;;11.49;nan;99715.16;5031070;27;97186;-82
2023/11/07 02:00:48;;;;;;;0.10;0.10;;;;;;;11.48;nan;99720.47;5028715;27;100396;-84
2023/11/07 02:03:14;;;;;;;0.47;0.47;;;;;;;11.50;nan;99716.00;5053774;27;97826;-85
2023/11/07 02:05:42;;;;;;;0.10;0.10;;;;;;;11.45;nan;99715.38;5020576;27;96702;-82
2023/11/07 02:08:09;;;;;;;0.13;0.13;;;;;;;11.44;nan;99718.94;5022970;27;96796;-84
2023/11/07 02:10:35;;;;;;;0.00;0.00;;;;;;;11.45;nan;99720.63;5047748;27;97976;-83
2023/11/07 02:13:01;;;;;;;0.47;0.47;;;;;;;11.53;nan;99731.63;5033667;27;101471;-84
2023/11/07 02:15:27;;;;;;;0.10;0.10;;;;;;;11.48;nan;99723.13;5024044;27;97063;-85
2023/11/07 02:17:53;;;;;;;0.80;0.73;;;;;;;11.64;nan;99731.13;5032677;27;96828;-84
2023/11/07 02:20:19;;;;;;;0.28;0.28;;;;;;;11.59;nan;99733.13;5017792;27;100610;-83
2023/11/07 02:23:03;;;;;;;0.32;0.32;;;;;;;11.50;nan;99729.16;5019800;27;101087;-83
2023/11/07 02:25:29;;;;;;;0.10;0.10;;;;;;;11.53;nan;99729.84;5037231;27;97161;-83
2023/11/07 02:27:55;;;;;;;0.10;0.10;;;;;;;11.58;nan;99737.53;5046469;27;96849;-84
2023/11/07 02:30:20;;;;;;;0.10;0.10;;;;;;;11.61;nan;99737.38;5053144;27;97396;-84
2023/11/07 02:32:46;;;;;;;0.10;0.10;;;;;;;11.57;nan;99736.66;5022121;27;101324;-83
2023/11/07 02:35:11;;;;;;;0.10;0.10;;;;;;;11.52;nan;99736.06;5047235;27;97224;-83
2023/11/07 02:37:38;;;;;;;0.52;0.52;;;;;;;11.61;nan;99745.28;5043902;27;97051;-84
2023/11/07 02:40:04;;;;;;;0.20;0.20;;;;;;;11.61;nan;99737.38;5050395;27;98259;-84
2023/11/07 02:42:30;;;;;;;0.03;0.03;;;;;;;11.74;nan;99745.53;5014447;28;101248;-84
2023/11/07 02:44:58;;;;;;;0.10;0.10;;;;;;;11.73;nan;99742.06;5036133;27;96780;-83
2023/11/07 02:47:24;;;;;;;0.10;0.10;;;;;;;11.64;nan;99732.00;5041880;27;96785;-84
2023/11/07 02:49:51;;;;;;;0.10;0.10;;;;;;;11.67;nan;99725.75;5036118;27;100690;-83
2023/11/07 02:52:16;;;;;;;0.30;0.30;;;;;;;11.68;nan;99730.91;5032821;27;97463;-83
2023/11/07 02:54:42;;;;;;;0.05;0.05;;;;;;;11.91;nan;99750.03;5044812;27;97398;-84
2023/11/07 02:57:07;;;;;;;0.00;0.00;;;;;;;11.91;nan;99742.97;5031536;27;97334;-83
2023/11/07 02:59:33;;;;;;;0.10;0.10;;;;;;;11.81;nan;99736.44;5027719;27;99642;-83
2023/11/07 03:02:00;;;;;;;0.10;0.10;;;;;;;11.78;nan;99736.59;5028455;27;98060;-84
2023/11/07 03:04:26;;;;;;;0.10;0.10;;;;;;;11.87;nan;99736.19;5011648;27;96800;-84
2023/11/07 03:06:53;;;;;;;0.03;0.03;;;;;;;11.54;nan;99691.28;5063193;27;97912;-84
2023/11/07 03:09:18;;;;;;;0.20;0.20;;;;;;;11.93;nan;99761.31;5035394;27;101283;-84
2023/11/07 03:11:43;;;;;;;0.00;0.00;;;;;;;11.81;nan;99751.34;5019375;27;101194;-83
2023/11/07 03:14:09;;;;;;;0.05;0.05;;;;;;;11.78;nan;99731.34;5036236;27;97168;-84
2023/11/07 03:16:36;;;;;;;0.00;0.00;;;;;;;11.72;nan;99744.75;5075180;27;97280;-84
2023/11/07 03:19:07;;;;;;;0.00;0.00;;;;;;;11.76;nan;99759.47;5028015;27;101203;-83
2023/11/07 03:21:33;;;;;;;0.00;0.00;;;;;;;11.78;nan;99749.75;5044467;27;97249;-83
2023/11/07 03:23:58;;;;;;;0.05;0.05;;;;;;;11.64;nan;99724.09;5056333;27;96714;-83
2023/11/07 03:26:24;;;;;;;0.20;0.20;;;;;;;11.85;nan;99761.69;5035823;27;97017;-84
2023/11/07 03:28:50;;;;;;;0.00;0.00;;;;;;;11.94;nan;99763.88;5011169;27;101381;-84
2023/11/07 03:31:15;;;;;;;0.08;0.08;;;;;;;11.54;nan;99723.66;5033654;27;97223;-82
2023/11/07 03:33:41;;;;;;;0.20;0.20;;;;;;;11.47;nan;99724.03;5030867;27;96746;-84
2023/11/07 03:36:08;;;;;;;0.13;0.13;;;;;;;11.49;nan;99733.56;5038036;27;97278;-83
2023/11/07 03:38:34;;;;;;;0.10;0.10;;;;;;;11.57;nan;99765.56;5042600;27;98076;-83
2023/11/07 03:41:02;;;;;;;0.95;0.90;;;;;;;11.47;nan;99739.81;5056328;27;97388;-83
2023/11/07 03:43:28;;;;;;;0.05;0.05;;;;;;;11.60;nan;99776.88;5055825;27;97145;-84
2023/11/07 03:45:53;;;;;;;0.00;0.00;;;;;;;11.24;nan;99746.97;5056353;27;97020;-84
2023/11/07 03:48:19;;;;;;;0.52;0.52;;;;;;;11.41;nan;99784.78;5036131;27;101403;-84
2023/11/07 03:50:44;;;;;;;2.08;1.95;;;;;;;11.24;nan;99781.13;5036493;27;97237;-84
2023/11/07 03:53:10;;;;;;;0.03;0.03;;;;;;;11.26;nan;99776.69;5036242;27;97070;-83
2023/11/07 03:55:36;;;;;;;0.10;0.10;;;;;;;11.24;nan;99782.91;5035725;27;97274;-83
2023/11/07 03:58:01;;;;;;;0.28;0.28;;;;;;;11.16;nan;99770.13;5035319;27;97548;-83
2023/11/07 04:00:27;;;;;;;0.00;0.00;;;;;;;11.08;nan;99775.72;5053116;27;97260;-84
2023/11/07 04:02:52;;;;;;;0.10;0.10;;;;;;;10.97;nan;99775.34;5054349;27;97163;-83
2023/11/07 04:05:18;;;;;;;0.00;0.00;;;;;;;10.90;nan;99767.81;5053460;27;97203;-82
2023/11/07 04:07:44;;;;;;;0.10;0.10;;;;;;;10.98;nan;99771.78;5053041;27;97869;-83
2023/11/07 04:10:09;;;;;;;0.00;0.00;;;;;;;11.05;nan;99782.88;5049097;27;98091;-84
2023/11/07 04:12:35;;;;;;;0.00;0.00;;;;;;;11.09;nan;99774.81;5032866;27;96671;-85
2023/11/07 04:15:05;;;;;;;0.10;0.10;;;;;;;11.04;nan;99779.41;5026365;27;96871;-83
2023/11/07 04:17:30;;;;;;;0.35;0.35;;;;;;;11.13;nan;99799.16;5035641;27;98978;-84
2023/11/07 04:19:56;;;;;;;0.10;0.10;;;;;;;10.83;nan;99747.06;5059945;27;97382;-83
2023/11/07 04:22:22;;;;;;;0.00;0.00;;;;;;;10.85;nan;99779.38;5036082;27;96824;-83
2023/11/07 04:24:47;;;;;;;0.03;0.03;;;;;;;10.86;nan;99803.84;5054730;27;97013;-84
2023/11/07 04:27:13;;;;;;;0.10;0.10;;;;;;;10.85;nan;99799.53;5061705;27;98804;-81
2023/11/07 04:29:39;;;;;;;0.10;0.10;;;;;;;10.81;nan;99787.44;5043564;27;97429;-84
2023/11/07 04:32:05;;;;;;;0.43;0.43;;;;;;;10.94;nan;99801.75;5029623;27;97255;-84
2023/11/07 04:34:30;;;;;;;0.00;0.00;;;;;;;10.92;nan;99800.09;5028104;27;97317;-85
2023/11/07 04:36:56;;;;;;;0.00;0.00;;;;;;;10.87;nan;99806.41;5031630;27;98082;-83
2023/11/07 04:39:21;;;;;;;0.00;0.00;;;;;;;10.82;nan;99800.50;5044530;27;97706;-83
2023/11/07 04:41:47;;;;;;;0.10;0.10;;;;;;;10.86;nan;99811.72;5044376;27;96782;-83
2023/11/07 04:44:13;;;;;;;0.00;0.00;;;;;;;10.95;nan;99813.09;5048591;27;97384;-83
2023/11/07 04:46:39;;;;;;;0.00;0.00;;;;;;;10.86;nan;99790.72;5025862;27;97703;-83
2023/11/07 04:49:07;;;;;;;0.03;0.03;;;;;;;10.95;nan;99797.34;5031125;27;100730;-83
2023/11/07 04:51:32;;;;;;;0.30;0.30;;;;;;;10.92;nan;99789.59;5062719;27;97260;-83
2023/11/07 04:53:58;;;;;;;0.00;0.00;;;;;;;10.97;nan;99806.88;5028678;27;98156;-84
2023/11/07 04:56:23;;;;;;;0.08;0.08;;;;;;;10.69;nan;99811.59;5041562;27;97439;-83
2023/11/07 04:58:49;;;;;;;0.00;0.00;;;;;;;10.48;nan;99802.88;5027856;27;97431;-83
2023/11/07 05:01:15;;;;;;;0.10;0.10;;;;;;;10.42;nan;99823.19;5029277;27;96873;-83
2023/11/07 05:03:41;;;;;;;0.05;0.05;;;;;;;10.04;nan;99764.41;5033074;27;97356;-83
2023/11/07 05:06:07;;;;;;;0.28;0.28;;;;;;;10.25;nan;99832.63;5026256;27;101247;-83
2023/11/07 05:08:33;;;;;;;0.30;0.30;;;;;;;10.20;nan;99822.31;5030464;27;97901;-85
2023/11/07 05:10:59;;;;;;;0.10;0.10;;;;;;;10.20;nan;99793.47;5043299;27;96872;-84
2023/11/07 05:13:24;;;;;;;0.10;0.10;;;;;;;10.22;nan;99830.13;5025832;27;97369;-83
2023/11/07 05:15:50;;;;;;;0.57;0.57;;;;;;;10.22;nan;99825.72;5062329;27;97916;-85
2023/11/07 05:18:15;;;;;;;0.10;0.10;;;;;;;9.92;nan;99805.06;5043479;27;97997;-85
2023/11/07 05:20:44;;;;;;;0.10;0.10;;;;;;;10.01;nan;99839.72;5033473;27;96897;-84
2023/11/07 05:23:10;;;;;;;0.10;0.10;;;;;;;9.86;nan;99842.03;5045446;27;96956;-85
2023/11/07 05:25:35;;;;;;;0.00;0.00;;;;;;;9.76;nan;99843.28;5028655;27;100814;-86
2023/11/07 05:28:02;;;;;;;0.10;0.10;;;;;;;9.82;nan;99845.66;5045371;27;98527;-85
2023/11/07 05:30:28;;;;;;;0.10;0.10;;;;;;;9.75;nan;99849.44;5040096;27;97251;-84
2023/11/07 05:32:53;;;;;;;0.00;0.00;;;;;;;9.63;nan;99849.88;5029759;27;97417;-85
2023/11/07 05:35:19;;;;;;;0.30;0.30;;;;;;;9.30;nan;99798.69;5039430;27;97739;-83
2023/11/07 05:37:45;;;;;;;0.10;0.10;;;;;;;9.57;nan;99863.22;5041835;27;102000;-85
2023/11/07 05:40:13;;;;;;;0.10;0.10;;;;;;;9.50;nan;99852.09;5059100;27;96698;-85
2023/11/07 05:42:42;;;;;;;0.05;0.05;;;;;;;9.47;nan;99857.47;5027531;27;97323;-85
2023/11/07 05:45:08;;;;;;;0.75;0.75;;;;;;;9.50;nan;99865.22;5039680;27;99100;-84
2023/11/07 05:47:36;;;;;;;0.20;0.20;;;;;;;9.54;nan;99864.19;5041077;27;101222;-84
2023/11/07 05:50:05;;;;;;;0.00;0.00;;;;;;;9.17;nan;99804.44;5035363;27;97578;-83
2023/11/07 05:52:32;;;;;;;0.10;0.10;;;;;;;9.50;nan;99873.91;5041420;27;96762;-86
2023/11/07 05:55:02;;;;;;;0.10;0.10;;;;;;;9.62;nan;99874.38;5059672;27;98405;-85
2023/11/07 05:57:28;;;;;;;0.10;0.10;;;;;;;9.72;nan;99855.66;5050630;27;98072;-84
2023/11/07 05:59:53;;;;;;;0.10;0.10;;;;;;;9.67;nan;99843.63;5044541;27;97106;-84
2023/11/07 06:02:19;;;;;;;0.28;0.28;;;;;;;10.00;nan;99882.56;5019975;27;96929;-84
2023/11/07 06:04:46;;;;;;;0.10;0.10;;;;;;;9.70;nan;99814.69;5021572;27;98287;-85
2023/11/07 06:07:12;;;;;;;0.30;0.30;;;;;;;9.97;nan;99879.13;5026574;27;100952;-79
2023/11/07 06:09:37;;;;;;;2.63;1.50;;;;;;;9.98;nan;99886.13;5023229;27;97433;-80
2023/11/07 06:12:03;;;;;;;0.00;0.00;;;;;;;10.01;nan;99887.75;5039097;27;97353;-86
2023/11/07 06:14:28;;;;;;;0.10;0.10;;;;;;;9.72;nan;99844.31;5050879;27;97293;-83
2023/11/07 06:16:54;;;;;;;0.13;0.13;;;;;;;9.87;nan;99853.34;5029735;27;100821;-84
2023/11/07 06:19:20;;;;;;;0.10;0.10;;;;;;;10.02;nan;99886.84;5033764;27;97121;-84
2023/11/07 06:21:48;;;;;;;0.00;0.00;;;;;;;9.85;nan;99865.66;5048892;27;97442;-83
2023/11/07 06:24:14;;;;;;;0.10;0.10;;;;;;;10.06;nan;99882.31;5035081;27;101054;-83
2023/11/07 06:26:40;;;;;;;0.52;0.52;;;;;;;10.16;nan;99886.31;5043577;27;101419;-84
2023/11/07 06:29:06;;;;;;;0.20;0.20;;;;;;;10.26;nan;99894.66;5041539;27;97258;-84
2023/11/07 06:31:31;;;;;;;4.68;1.10;;;;;;;10.19;nan;99900.16;5040673;27;97844;-84
2023/11/07 06:33:57;;;;;;;0.25;0.22;;;;;;;10.25;nan;99898.22;5072466;27;97424;-83
2023/11/07 06:36:24;;;;;;;0.00;0.00;;;;;;;10.10;nan;99892.66;5064872;27;97979;-84
2023/11/07 06:38:50;;;;;;;0.00;0.00;;;;;;;10.07;nan;99905.88;5086373;27;97533;-84
2023/11/07 06:41:17;;;;;;;0.30;0.30;;;;;;;10.01;nan;99894.78;5074124;27;96737;-84
2023/11/07 06:43:45;;;;;;;0.10;0.10;;;;;;;10.07;nan;99905.03;5063442;27;100011;-81
2023/11/07 06:46:13;;;;;;;0.10;0.10;;;;;;;10.05;nan;99901.59;5071872;27;97395;-83
2023/11/07 06:48:40;;;;;;;0.10;0.10;;;;;;;9.89;nan;99872.47;5020030;27;96795;-80
2023/11/07 06:51:06;;;;;;;0.10;0.10;;;;;;;10.30;nan;99919.91;5046139;27;96790;-84
2023/11/07 06:53:32;;;;;;;0.20;0.20;;;;;;;10.35;nan;99884.69;5075743;27;97416;-81
2023/11/07 06:55:57;;;;;;;0.10;0.10;;;;;;;10.64;nan;99874.78;5044899;27;101343;-82
2023/11/07 06:58:23;;;;;;;0.10;0.10;;;;;;;11.18;nan;99893.53;5075169;27;97482;-82
2023/11/07 07:00:48;;;;;;;0.10;0.10;;;;;;;11.54;nan;99923.44;5064437;27;97271;-79
2023/11/07 07:03:14;;;;;;;0.00;0.00;;;;;;;11.85;nan;99926.50;5052851;27;98514;-84
2023/11/07 07:05:39;;;;;;;0.10;0.10;;;;;;;12.00;nan;99881.09;5058477;27;97907;-83
2023/11/07 07:08:07;;;;;;;0.10;0.10;;;;;;;12.54;nan;99945.19;5082812;27;97248;-85
2023/11/07 07:10:32;;;;;;;0.13;0.13;;;;;;;12.53;nan;99916.31;5036742;27;98005;-80
2023/11/07 07:12:58;;;;;;;0.17;0.17;;;;;;;12.99;nan;99935.97;5029429;27;101130;-79
2023/11/07 07:15:23;;;;;;;0.00;0.00;;;;;;;12.74;nan;99922.28;5036260;27;97362;-79
2023/11/07 07:17:49;;;;;;;0.10;0.10;;;;;;;13.19;nan;99936.75;5036209;27;96818;-80
2023/11/07 07:20:15;;;;;;;0.05;0.05;;;;;;;13.63;nan;99946.81;5035349;27;96903;-87
2023/11/07 07:22:41;;;;;;;0.10;0.10;;;;;;;13.71;nan;99947.25;5036528;27;97394;-85
2023/11/07 07:25:20;;;;;;;0.30;0.30;;;;;;;13.81;nan;99953.75;5056298;27;99308;-86
2023/11/07 07:27:47;;;;;;;0.50;0.50;;;;;;;13.57;nan;99925.09;5037138;27;96726;-85
2023/11/07 07:30:20;;;;;;;0.00;0.00;;;;;;;13.91;nan;99938.28;5026614;27;97268;-81
2023/11/07 07:32:47;;;;;;;0.05;0.05;;;;;;;14.30;nan;99937.03;5036854;27;97588;-82
2023/11/07 07:35:15;;;;;;;0.10;0.10;;;;;;;14.68;nan;99943.69;5036062;27;97752;-79
2023/11/07 07:37:45;;;;;;;0.10;0.10;;;;;;;14.67;nan;99949.06;5034300;27;96790;-81
2023/11/07 07:40:11;;;;;;;0.10;0.10;;;;;;;14.37;nan;99935.75;5060450;27;96990;-80
2023/11/07 07:42:37;;;;;;;0.10;0.10;;;;;;;14.81;nan;99946.50;5035814;27;98269;-79
2023/11/07 07:45:07;;;;;;;0.10;0.10;;;;;;;14.71;nan;99947.94;5032449;27;99586;-79
2023/11/07 07:47:35;;;;;;;0.00;0.00;;;;;;;15.48;nan;99949.59;5045745;27;97493;-79
2023/11/07 07:50:01;;;;;;;2.72;2.50;;;;;;;15.35;nan;99912.44;5038592;27;97133;-82
2023/11/07 07:52:31;;;;;;;0.35;0.35;;;;;;;16.18;nan;99925.06;5035226;27;97457;-81
2023/11/07 07:54:57;;;;;;;0.90;0.87;;;;;;;16.37;nan;99938.78;5052211;27;98607;-81
2023/11/07 07:57:22;;;;;;;0.68;0.68;;;;;;;16.71;nan;99941.94;5035240;27;97618;-80
2023/11/07 07:59:48;;;;;;;1.00;1.00;;;;;;;16.66;nan;99939.56;5035064;27;97026;-80
2023/11/07 08:02:15;;;;;;;0.10;0.10;;;;;;;16.97;nan;99906.63;5036591;27;97454;-79
2023/11/07 08:04:46;;;;;;;0.10;0.10;;;;;;;17.78;nan;99942.69;5034016;27;97760;-80
2023/11/07 08:07:16;;;;;;;0.30;0.30;;;;;;;18.13;nan;99901.31;5051698;27;96917;-81
2023/11/07 08:09:41;;;;;;;0.20;0.20;;;;;;;18.69;nan;99941.50;5052747;27;97095;-81
2023/11/07 08:12:09;;;;;;;0.10;0.10;;;;;;;19.11;nan;99941.94;5040400;27;101663;-81
2023/11/07 08:14:35;;;;;;;0.10;0.10;;;;;;;19.65;nan;99950.22;5022374;27;101173;-82
2023/11/07 08:17:01;;;;;;;0.10;0.10;;;;;;;19.14;nan;99947.03;5023622;27;96705;-82
2023/11/07 08:19:27;;;;;;;1.15;1.15;;;;;;;19.66;nan;99940.41;5030798;27;97725;-80
2023/11/07 08:21:53;;;;;;;2.50;2.40;;;;;;;20.12;nan;99948.28;5034541;27;97675;-80
2023/11/07 08:24:18;;;;;;;2.70;2.60;;;;;;;20.08;nan;99933.50;5039485;27;97372;-81
2023/11/07 08:26:44;;;;;;;2.70;2.60;;;;;;;20.05;nan;99951.56;5044478;27;96819;-81
2023/11/07 08:29:11;;;;;;;2.88;2.78;;;;;;;20.58;nan;99933.09;5044464;27;96843;-80
2023/11/07 08:31:36;;;;;;;3.50;3.30;;;;;;;20.22;nan;99928.91;5047967;27;97716;-82
2023/11/07 08:34:09;;;;;;;2.30;2.20;;;;;;;19.29;nan;99964.50;5038389;27;97239;-79
2023/11/07 08:36:38;;;;;;;3.75;3.47;;;;;;;18.20;nan;99966.31;5052375;27;96853;-81
2023/11/07 08:39:05;;;;;;;2.85;2.75;;;;;;;17.65;nan;99963.88;5045880;27;96797;-82
2023/11/07 08:41:31;;;;;;;3.50;3.30;;;;;;;17.36;nan;99954.41;5048765;27;98079;-80
2023/11/07 08:43:57;;;;;;;2.97;2.88;;;;;;;17.40;nan;99932.88;5044700;27;98556;-82
2023/11/07 08:46:23;;;;;;;3.10;3.00;;;;;;;17.61;nan;99967.72;5034443;27;97344;-81
2023/11/07 08:48:50;;;;;;;3.00;2.90;;;;;;;17.45;nan;99959.09;5033823;27;96756;-81
2023/11/07 08:51:17;;;;;;;3.47;3.28;;;;;;;18.57;nan;99927.31;5033265;27;97949;-79
2023/11/07 08:53:43;;;;;;;3.70;3.50;;;;;;;19.96;nan;99957.63;5033409;27;98032;-78
2023/11/07 08:56:10;;;;;;;3.10;3.00;;;;;;;20.21;nan;99961.84;5026831;27;96804;-82
2023/11/07 08:58:38;;;;;;;2.92;2.83;;;;;;;19.75;nan;99958.34;5035024;27;97159;-84
2023/11/07 09:01:04;;;;;;;3.28;3.10;;;;;;;18.63;nan;99940.13;5034859;27;98042;-83
2023/11/07 09:03:31;;;;;;;3.10;3.00;;;;;;;18.51;nan;99968.47;5001244;27;101376;-87
2023/11/07 09:05:56;;;;;;;3.25;3.13;;;;;;;17.98;nan;99973.16;5034091;27;96780;-85
2023/11/07 09:08:22;;;;;;;2.90;2.80;;;;;;;17.38;nan;99952.50;5033855;27;97404;-81
2023/11/07 09:10:48;;;;;;;2.40;2.30;;;;;;;17.58;nan;99945.84;5073952;27;97826;-79
2023/11/07 09:13:14;;;;;;;2.83;2.72;;;;;;;18.76;nan;99980.84;5076139;27;97793;-81
2023/11/07 09:15:41;;;;;;;3.28;3.08;;;;;;;20.22;nan;99976.88;5050207;27;97119;-77
2023/11/07 09:18:07;;;;;;;2.67;2.58;;;;;;;20.19;nan;99951.31;5023777;27;96804;-79
2023/11/07 09:20:34;;;;;;;2.80;2.70;;;;;;;19.79;nan;99938.47;5041956;27;99188;-77
2023/11/07 09:23:03;;;;;;;2.92;2.83;;;;;;;19.15;nan;99976.19;5059371;27;97441;-77
2023/11/07 09:25:29;;;;;;;3.63;3.42;;;;;;;17.65;nan;99982.44;5043733;27;97250;-77
2023/11/07 09:27:54;;;;;;;2.80;2.70;;;;;;;17.48;nan;99981.91;5076328;27;97074;-76
2023/11/07 09:30:20;;;;;;;3.08;2.97;;;;;;;17.21;nan;99972.22;5080010;27;97527;-76
2023/11/07 09:32:48;;;;;;;2.63;2.53;;;;;;;16.87;nan;99944.44;5073898;27;97386;-76
2023/11/07 09:35:14;;;;;;;3.40;3.22;;;;;;;16.72;nan;99981.56;5055140;27;97201;-78
2023/11/07 09:37:39;;;;;;;2.80;2.70;;;;;;;16.17;nan;99950.66;5051693;27;97242;-78
2023/11/07 09:40:10;;;;;;;3.17;3.08;;;;;;;16.13;nan;99951.81;5036250;27;98448;-77
2023/11/07 09:42:44;;;;;;;3.03;2.92;;;;;;;16.69;nan;99980.91;5045310;27;97555;-80
2023/11/07 09:45:14;;;;;;;2.80;2.70;;;;;;;15.81;nan;99943.22;5034560;27;97103;-80
2023/11/07 09:47:41;;;;;;;2.75;2.65;;;;;;;16.09;nan;99978.59;5044257;27;96899;-79
2023/11/07 09:50:10;;;;;;;2.80;2.70;;;;;;;16.10;nan;99977.63;5034694;27;100896;-81
2023/11/07 09:52:38;;;;;;;2.20;2.10;;;;;;;15.71;nan;99974.69;5048352;27;97523;-81
2023/11/07 09:55:08;;;;;;;2.92;2.83;;;;;;;15.81;nan;99940.56;5044267;27;98491;-81
2023/11/07 09:58:09;;;;;;;2.80;2.70;;;;;;;16.96;nan;99967.72;5041163;27;98182;-81
2023/11/07 10:00:38;;;;;;;2.40;2.30;;;;;;;17.34;nan;99967.78;5023533;27;98063;-80
2023/11/07 10:03:05;;;;;;;2.90;2.80;;;;;;;16.55;nan;99983.59;5057548;27;98084;-80
2023/11/07 10:05:31;;;;;;;2.10;2.00;;;;;;;16.00;nan;99957.03;5050800;27;96950;-82
2023/11/07 10:08:00;;;;;;;2.03;1.92;;;;;;;16.16;nan;99983.38;5045699;27;96821;-82
2023/11/07 10:10:25;;;;;;;1.90;1.80;;;;;;;16.36;nan;99976.84;5080295;27;97477;-82
2023/11/07 10:12:51;;;;;;;2.00;1.90;;;;;;;16.41;nan;99942.13;5070131;27;97270;-80
2023/11/07 10:15:23;;;;;;;2.70;2.60;;;;;;;16.58;nan;99971.03;5073075;27;97183;-82
2023/11/07 10:18:06;;;;;;;2.35;2.25;;;;;;;16.57;nan;99977.25;5064181;27;96764;-83
2023/11/07 10:20:33;;;;;;;2.50;2.40;;;;;;;16.84;nan;99965.84;5049029;27;98922;-83
2023/11/07 10:22:59;;;;;;;3.20;3.00;;;;;;;17.00;nan;99963.91;5070581;27;97876;-81
2023/11/07 10:25:32;;;;;;;2.33;2.22;;;;;;;16.59;nan;99964.78;5049604;27;97649;-81
2023/11/07 10:28:00;;;;;;;2.20;2.10;;;;;;;16.55;nan;99970.34;5052001;27;97320;-81
2023/11/07 10:30:41;;;;;;;2.00;1.90;;;;;;;16.57;nan;99974.63;5058621;27;97957;-82
2023/11/07 10:33:11;;;;;;;1.90;1.80;;;;;;;17.11;nan;99963.19;5063673;27;97834;-81
2023/11/07 10:35:54;;;;;;;2.00;1.90;;;;;;;17.13;nan;99927.66;5038199;27;97400;-81
2023/11/07 10:38:19;;;;;;;1.70;1.60;;;;;;;16.98;nan;99896.84;5063890;27;97518;-82
2023/11/07 10:40:46;;;;;;;1.50;1.50;;;;;;;17.22;nan;99950.06;5056375;27;97562;-81
2023/11/07 10:43:11;;;;;;;2.00;1.90;;;;;;;17.34;nan;99949.22;5055450;27;98548;-81
2023/11/07 10:45:38;;;;;;;2.88;2.78;;;;;;;16.91;nan;99920.28;5053476;27;97104;-81
2023/11/07 10:48:06;;;;;;;3.20;3.10;;;;;;;17.16;nan;99953.97;5053705;27;96885;-81
2023/11/07 10:50:31;;;;;;;2.60;2.50;;;;;;;17.26;nan;99954.19;5034619;27;101829;-82
2023/11/07 10:52:57;;;;;;;2.60;2.50;;;;;;;16.98;nan;99929.50;5055181;27;98402;-81
2023/11/07 10:55:22;;;;;;;2.00;1.90;;;;;;;17.06;nan;99942.28;5054775;27;97716;-81
2023/11/07 10:57:56;;;;;;;2.00;1.90;;;;;;;17.26;nan;99948.06;5048598;27;97389;-81
2023/11/07 11:00:24;;;;;;;2.00;1.90;;;;;;;16.66;nan;99925.47;5042984;27;100919;-81
2023/11/07 11:02:54;;;;;;;1.50;1.50;;;;;;;16.59;nan;99908.28;5081368;27;97635;-80
2023/11/07 11:05:20;;;;;;;1.38;1.38;;;;;;;16.77;nan;99953.97;5034455;27;97794;-77
2023/11/07 11:07:51;;;;;;;2.00;1.90;;;;;;;16.48;nan;99917.78;5049477;27;96911;-81
2023/11/07 11:10:21;;;;;;;1.33;1.33;;;;;;;16.27;nan;99912.06;5056399;27;98184;-80
2023/11/07 11:12:49;;;;;;;1.85;1.75;;;;;;;16.06;nan;99924.03;5069361;27;98011;-81
2023/11/07 11:15:15;;;;;;;1.92;1.83;;;;;;;15.84;nan;99890.94;5054950;27;96809;-80
2023/11/07 11:17:55;;;;;;;1.40;1.40;;;;;;;16.02;nan;99954.28;5060841;27;97541;-80
2023/11/07 11:20:32;;;;;;;1.50;1.50;;;;;;;15.90;nan;99949.75;5058355;27;97949;-80
2023/11/07 11:23:27;;;;;;;1.75;1.65;;;;;;;16.00;nan;99949.09;5060076;27;98091;-81
2023/11/07 11:26:04;;;;;;;3.00;2.30;;;;;;;15.68;nan;99911.38;5045843;27;98676;-81
2023/11/07 11:28:40;;;;;;;2.10;2.00;;;;;;;15.89;nan;99940.13;5049876;27;97136;-80
2023/11/07 11:31:08;;;;;;;1.90;1.80;;;;;;;15.87;nan;99939.34;5034773;27;99220;-80
2023/11/07 11:33:34;;;;;;;1.90;1.80;;;;;;;15.97;nan;99937.81;5028759;27;97640;-81
2023/11/07 11:35:59;;;;;;;3.05;2.85;;;;;;;15.79;nan;99927.44;5035099;27;97231;-80
2023/11/07 11:38:39;;;;;;;2.20;2.10;;;;;;;15.67;nan;99935.25;5048343;27;97425;-81
2023/11/07 11:41:06;;;;;;;2.75;2.65;;;;;;;15.55;nan;99929.75;5031734;27;101394;-83
2023/11/07 11:43:34;;;;;;;2.15;2.05;;;;;;;15.53;nan;99938.72;5027921;27;97404;-80
2023/11/07 11:46:13;;;;;;;2.13;2.03;;;;;;;15.27;nan;99929.72;5036663;27;97269;-79
2023/11/07 11:48:51;;;;;;;2.30;2.20;;;;;;;15.35;nan;99925.66;5034756;27;97575;-82